sensor_id;sensor_type;location;lat;lon;timestamp;pressure;altitude;pressure_sealevel;temperature;humidity
11523;BME280;40093;43.224;27.910;2022-08-19T00:02:10;99951.41;;;26.88;79.75
11523;BME280;40093;43.224;27.910;2022-08-19T00:04:37;99961.03;;;26.76;79.83
11523;BME280;40093;43.224;27.910;2022-08-19T00:07:06;99963.03;;;26.70;80.50
11523;BME280;40093;43.224;27.910;2022-08-19T00:09:33;99965.59;;;26.68;80.94
11523;BME280;40093;43.224;27.910;2022-08-19T00:12:00;99962.94;;;26.59;81.21
11523;BME280;40093;43.224;27.910;2022-08-19T00:14:29;99965.81;;;26.65;81.18
11523;BME280;40093;43.224;27.910;2022-08-19T00:16:57;99969.69;;;26.67;80.71
11523;BME280;40093;43.224;27.910;2022-08-19T00:19:23;99958.28;;;26.56;81.39
11523;BME280;40093;43.224;27.910;2022-08-19T00:21:51;99962.22;;;26.44;82.17
11523;BME280;40093;43.224;27.910;2022-08-19T00:24:18;99958.84;;;26.40;83.13
11523;BME280;40093;43.224;27.910;2022-08-19T00:26:45;99965.63;;;26.28;83.61
11523;BME280;40093;43.224;27.910;2022-08-19T00:29:14;99959.84;;;26.37;83.09
11523;BME280;40093;43.224;27.910;2022-08-19T00:31:43;99967.72;;;26.33;83.23
11523;BME280;40093;43.224;27.910;2022-08-19T00:34:10;99965.75;;;26.39;83.50
11523;BME280;40093;43.224;27.910;2022-08-19T00:36:37;99962.66;;;26.37;82.31
11523;BME280;40093;43.224;27.910;2022-08-19T00:39:04;99966.97;;;26.33;83.12
11523;BME280;40093;43.224;27.910;2022-08-19T00:41:31;99962.53;;;26.26;83.61
11523;BME280;40093;43.224;27.910;2022-08-19T00:44:03;99966.19;;;26.32;83.67
11523;BME280;40093;43.224;27.910;2022-08-19T00:46:31;99965.63;;;26.28;83.29
11523;BME280;40093;43.224;27.910;2022-08-19T00:49:02;99966.75;;;26.36;82.66
11523;BME280;40093;43.224;27.910;2022-08-19T00:51:30;99967.31;;;26.40;82.72
11523;BME280;40093;43.224;27.910;2022-08-19T00:53:58;99963.75;;;26.45;82.45
11523;BME280;40093;43.224;27.910;2022-08-19T00:56:27;99966.31;;;26.43;82.38
11523;BME280;40093;43.224;27.910;2022-08-19T00:58:56;99964.38;;;26.29;82.93
11523;BME280;40093;43.224;27.910;2022-08-19T01:01:25;99968.72;;;26.30;83.40
11523;BME280;40093;43.224;27.910;2022-08-19T01:03:52;99963.63;;;26.34;83.25
11523;BME280;40093;43.224;27.910;2022-08-19T01:06:21;99967.19;;;26.29;82.60
11523;BME280;40093;43.224;27.910;2022-08-19T01:08:48;99964.56;;;26.26;83.06
11523;BME280;40093;43.224;27.910;2022-08-19T01:11:15;99965.91;;;26.30;82.76
11523;BME280;40093;43.224;27.910;2022-08-19T01:13:42;99959.00;;;26.31;82.22
11523;BME280;40093;43.224;27.910;2022-08-19T01:16:11;99965.22;;;26.35;82.19
11523;BME280;40093;43.224;27.910;2022-08-19T01:18:41;99959.28;;;26.33;82.56
11523;BME280;40093;43.224;27.910;2022-08-19T01:21:12;99962.66;;;26.37;82.04
11523;BME280;40093;43.224;27.910;2022-08-19T01:23:45;99966.81;;;26.42;81.93
11523;BME280;40093;43.224;27.910;2022-08-19T01:26:16;99969.72;;;26.47;81.69
11523;BME280;40093;43.224;27.910;2022-08-19T01:28:45;99960.34;;;26.36;81.33
11523;BME280;40093;43.224;27.910;2022-08-19T01:31:14;99955.00;;;26.18;82.46
11523;BME280;40093;43.224;27.910;2022-08-19T01:33:41;99959.81;;;25.92;83.49
11523;BME280;40093;43.224;27.910;2022-08-19T01:36:12;99952.97;;;25.98;84.18
11523;BME280;40093;43.224;27.910;2022-08-19T01:38:41;99955.91;;;26.09;83.44
11523;BME280;40093;43.224;27.910;2022-08-19T01:41:11;99954.00;;;26.21;83.52
11523;BME280;40093;43.224;27.910;2022-08-19T01:43:38;99958.19;;;26.25;82.76
11523;BME280;40093;43.224;27.910;2022-08-19T01:46:05;99952.81;;;26.27;83.05
11523;BME280;40093;43.224;27.910;2022-08-19T01:48:36;99966.53;;;26.40;82.91
11523;BME280;40093;43.224;27.910;2022-08-19T01:51:04;99951.59;;;26.34;82.84
11523;BME280;40093;43.224;27.910;2022-08-19T01:53:31;99955.47;;;26.36;82.66
11523;BME280;40093;43.224;27.910;2022-08-19T01:55:59;99948.03;;;26.39;81.60
11523;BME280;40093;43.224;27.910;2022-08-19T01:58:33;99939.53;;;26.33;81.87
11523;BME280;40093;43.224;27.910;2022-08-19T02:01:01;99945.47;;;26.35;81.95
11523;BME280;40093;43.224;27.910;2022-08-19T02:03:30;99947.84;;;26.42;81.97
11523;BME280;40093;43.224;27.910;2022-08-19T02:05:58;99937.84;;;26.21;83.34
11523;BME280;40093;43.224;27.910;2022-08-19T02:08:26;99945.47;;;26.35;82.20
11523;BME280;40093;43.224;27.910;2022-08-19T02:10:53;99945.16;;;26.33;82.73
11523;BME280;40093;43.224;27.910;2022-08-19T02:13:20;99938.25;;;26.34;82.66
11523;BME280;40093;43.224;27.910;2022-08-19T02:15:49;99931.78;;;26.28;82.69
11523;BME280;40093;43.224;27.910;2022-08-19T02:18:16;99920.25;;;25.87;83.88
11523;BME280;40093;43.224;27.910;2022-08-19T02:20:44;99933.84;;;26.08;84.23
11523;BME280;40093;43.224;27.910;2022-08-19T02:23:13;99933.50;;;26.00;84.80
11523;BME280;40093;43.224;27.910;2022-08-19T02:25:40;99923.22;;;25.97;85.30
11523;BME280;40093;43.224;27.910;2022-08-19T02:28:07;99928.78;;;25.92;85.04
11523;BME280;40093;43.224;27.910;2022-08-19T02:30:35;99929.84;;;25.94;84.96
11523;BME280;40093;43.224;27.910;2022-08-19T02:33:03;99923.88;;;25.87;85.64
11523;BME280;40093;43.224;27.910;2022-08-19T02:35:30;99929.00;;;25.88;85.71
11523;BME280;40093;43.224;27.910;2022-08-19T02:37:57;99930.94;;;26.02;84.96
11523;BME280;40093;43.224;27.910;2022-08-19T02:40:48;99922.00;;;26.04;84.79
11523;BME280;40093;43.224;27.910;2022-08-19T02:43:17;99929.47;;;26.07;84.09
11523;BME280;40093;43.224;27.910;2022-08-19T02:45:45;99933.34;;;26.09;84.02
11523;BME280;40093;43.224;27.910;2022-08-19T02:48:15;99931.31;;;26.10;83.86
11523;BME280;40093;43.224;27.910;2022-08-19T02:50:43;99929.16;;;25.85;84.76
11523;BME280;40093;43.224;27.910;2022-08-19T02:53:11;99928.97;;;25.69;86.28
11523;BME280;40093;43.224;27.910;2022-08-19T02:55:43;99935.38;;;25.69;86.48
11523;BME280;40093;43.224;27.910;2022-08-19T02:58:11;99918.38;;;25.44;86.51
11523;BME280;40093;43.224;27.910;2022-08-19T03:00:42;99938.69;;;25.68;86.47
11523;BME280;40093;43.224;27.910;2022-08-19T03:03:10;99932.44;;;25.78;86.59
11523;BME280;40093;43.224;27.910;2022-08-19T03:05:39;99936.72;;;25.74;86.28
11523;BME280;40093;43.224;27.910;2022-08-19T03:08:08;99934.31;;;25.67;86.54
11523;BME280;40093;43.224;27.910;2022-08-19T03:10:41;99955.03;;;25.64;87.54
11523;BME280;40093;43.224;27.910;2022-08-19T03:13:12;99943.59;;;25.53;88.40
11523;BME280;40093;43.224;27.910;2022-08-19T03:15:41;99951.53;;;25.34;89.87
11523;BME280;40093;43.224;27.910;2022-08-19T03:18:08;99954.19;;;24.94;92.32
11523;BME280;40093;43.224;27.910;2022-08-19T03:20:42;99954.00;;;24.83;94.39
11523;BME280;40093;43.224;27.910;2022-08-19T03:23:09;99948.94;;;24.73;95.34
11523;BME280;40093;43.224;27.910;2022-08-19T03:25:38;99945.25;;;24.67;96.43
11523;BME280;40093;43.224;27.910;2022-08-19T03:28:06;99941.19;;;24.68;96.34
11523;BME280;40093;43.224;27.910;2022-08-19T03:30:33;99963.88;;;24.79;96.36
11523;BME280;40093;43.224;27.910;2022-08-19T03:33:00;99963.28;;;24.89;95.11
11523;BME280;40093;43.224;27.910;2022-08-19T03:35:27;99966.38;;;25.06;94.01
11523;BME280;40093;43.224;27.910;2022-08-19T03:37:57;99967.75;;;25.25;92.79
11523;BME280;40093;43.224;27.910;2022-08-19T03:40:24;99976.47;;;25.27;92.33
11523;BME280;40093;43.224;27.910;2022-08-19T03:42:51;99975.28;;;25.48;91.40
11523;BME280;40093;43.224;27.910;2022-08-19T03:45:18;99982.16;;;25.95;88.39
11523;BME280;40093;43.224;27.910;2022-08-19T03:47:45;99983.25;;;26.43;85.00
11523;BME280;40093;43.224;27.910;2022-08-19T03:50:12;99984.41;;;26.77;83.03
11523;BME280;40093;43.224;27.910;2022-08-19T03:52:39;99989.44;;;27.18;80.73
11523;BME280;40093;43.224;27.910;2022-08-19T03:55:09;99992.81;;;27.22;78.94
11523;BME280;40093;43.224;27.910;2022-08-19T03:57:38;99992.41;;;27.40;78.86
11523;BME280;40093;43.224;27.910;2022-08-19T04:00:06;99995.69;;;27.64;76.52
11523;BME280;40093;43.224;27.910;2022-08-19T04:02:33;100002.38;;;28.09;74.64
11523;BME280;40093;43.224;27.910;2022-08-19T04:05:00;99992.81;;;28.48;72.82
11523;BME280;40093;43.224;27.910;2022-08-19T04:07:27;100004.91;;;28.49;71.34
11523;BME280;40093;43.224;27.910;2022-08-19T04:09:54;99994.19;;;28.80;70.55
11523;BME280;40093;43.224;27.910;2022-08-19T04:12:22;99990.13;;;29.14;69.21
11523;BME280;40093;43.224;27.910;2022-08-19T04:14:49;99998.63;;;29.58;67.58
11523;BME280;40093;43.224;27.910;2022-08-19T04:17:16;99992.66;;;29.78;66.05
11523;BME280;40093;43.224;27.910;2022-08-19T04:19:43;99998.31;;;29.89;64.73
11523;BME280;40093;43.224;27.910;2022-08-19T04:22:10;100000.34;;;30.05;64.24
11523;BME280;40093;43.224;27.910;2022-08-19T04:24:37;100006.94;;;30.35;63.29
11523;BME280;40093;43.224;27.910;2022-08-19T04:27:05;100005.28;;;30.56;62.11
11523;BME280;40093;43.224;27.910;2022-08-19T04:29:34;100011.47;;;30.60;61.50
11523;BME280;40093;43.224;27.910;2022-08-19T04:32:01;100012.00;;;30.64;61.15
11523;BME280;40093;43.224;27.910;2022-08-19T04:34:28;100021.88;;;30.92;60.07
11523;BME280;40093;43.224;27.910;2022-08-19T04:36:57;100022.59;;;31.04;59.51
11523;BME280;40093;43.224;27.910;2022-08-19T04:39:26;100011.41;;;31.11;58.82
11523;BME280;40093;43.224;27.910;2022-08-19T04:42:14;100018.41;;;31.16;58.57
11523;BME280;40093;43.224;27.910;2022-08-19T04:45:00;100017.81;;;31.23;57.82
11523;BME280;40093;43.224;27.910;2022-08-19T04:47:28;100020.31;;;31.32;57.77
11523;BME280;40093;43.224;27.910;2022-08-19T04:49:56;100025.56;;;31.52;57.22
11523;BME280;40093;43.224;27.910;2022-08-19T04:52:24;100024.09;;;31.45;57.35
11523;BME280;40093;43.224;27.910;2022-08-19T04:54:51;100017.50;;;31.55;56.53
11523;BME280;40093;43.224;27.910;2022-08-19T04:57:17;100022.16;;;31.58;56.48
11523;BME280;40093;43.224;27.910;2022-08-19T04:59:44;100018.59;;;31.52;57.19
11523;BME280;40093;43.224;27.910;2022-08-19T05:02:13;100020.66;;;31.81;55.81
11523;BME280;40093;43.224;27.910;2022-08-19T05:04:40;100018.41;;;31.74;55.79
11523;BME280;40093;43.224;27.910;2022-08-19T05:07:07;100020.53;;;31.68;56.34
11523;BME280;40093;43.224;27.910;2022-08-19T05:09:35;100020.06;;;31.88;55.90
11523;BME280;40093;43.224;27.910;2022-08-19T05:12:03;100023.03;;;32.01;55.01
11523;BME280;40093;43.224;27.910;2022-08-19T05:14:31;100020.19;;;32.25;54.30
11523;BME280;40093;43.224;27.910;2022-08-19T05:16:57;100020.06;;;32.12;54.27
11523;BME280;40093;43.224;27.910;2022-08-19T05:19:26;100024.88;;;32.23;53.88
11523;BME280;40093;43.224;27.910;2022-08-19T05:22:10;100022.91;;;32.36;53.65
11523;BME280;40093;43.224;27.910;2022-08-19T05:24:54;100020.78;;;32.42;53.70
11523;BME280;40093;43.224;27.910;2022-08-19T05:27:21;100019.03;;;32.34;52.65
11523;BME280;40093;43.224;27.910;2022-08-19T05:29:48;100012.75;;;32.41;52.34
11523;BME280;40093;43.224;27.910;2022-08-19T05:32:15;100014.22;;;32.47;52.73
11523;BME280;40093;43.224;27.910;2022-08-19T05:34:43;100012.22;;;32.42;52.80
11523;BME280;40093;43.224;27.910;2022-08-19T05:37:10;100000.91;;;31.89;52.78
11523;BME280;40093;43.224;27.910;2022-08-19T05:39:37;100000.75;;;31.81;53.54
11523;BME280;40093;43.224;27.910;2022-08-19T05:42:07;100001.38;;;31.93;53.40
11523;BME280;40093;43.224;27.910;2022-08-19T05:44:40;100003.47;;;31.68;54.13
11523;BME280;40093;43.224;27.910;2022-08-19T05:47:10;100008.38;;;31.68;54.53
11523;BME280;40093;43.224;27.910;2022-08-19T05:49:37;99994.31;;;31.75;54.29
11523;BME280;40093;43.224;27.910;2022-08-19T05:52:08;99997.00;;;31.92;53.46
11523;BME280;40093;43.224;27.910;2022-08-19T05:54:37;99989.34;;;32.05;53.08
11523;BME280;40093;43.224;27.910;2022-08-19T05:57:06;99994.34;;;31.99;53.31
11523;BME280;40093;43.224;27.910;2022-08-19T05:59:33;99994.56;;;32.01;53.38
11523;BME280;40093;43.224;27.910;2022-08-19T06:02:02;99981.72;;;31.65;54.41
11523;BME280;40093;43.224;27.910;2022-08-19T06:04:29;99991.50;;;31.75;54.22
11523;BME280;40093;43.224;27.910;2022-08-19T06:06:56;99990.19;;;31.76;54.62
11523;BME280;40093;43.224;27.910;2022-08-19T06:09:25;99987.53;;;31.54;54.59
11523;BME280;40093;43.224;27.910;2022-08-19T06:11:53;99988.38;;;31.50;55.00
11523;BME280;40093;43.224;27.910;2022-08-19T06:14:23;99981.63;;;31.76;54.61
11523;BME280;40093;43.224;27.910;2022-08-19T06:16:51;99991.66;;;31.83;54.38
11523;BME280;40093;43.224;27.910;2022-08-19T06:19:20;99986.63;;;31.94;53.92
11523;BME280;40093;43.224;27.910;2022-08-19T06:21:48;99989.75;;;31.91;53.94
11523;BME280;40093;43.224;27.910;2022-08-19T06:24:17;99985.69;;;31.86;54.06
11523;BME280;40093;43.224;27.910;2022-08-19T06:26:47;99989.56;;;32.07;54.03
11523;BME280;40093;43.224;27.910;2022-08-19T06:29:16;99985.13;;;32.12;53.03
11523;BME280;40093;43.224;27.910;2022-08-19T06:31:46;99993.63;;;32.36;53.14
11523;BME280;40093;43.224;27.910;2022-08-19T06:34:14;99981.41;;;32.59;52.02
11523;BME280;40093;43.224;27.910;2022-08-19T06:36:43;99989.81;;;32.33;52.61
11523;BME280;40093;43.224;27.910;2022-08-19T06:39:14;99989.19;;;32.40;52.55
11523;BME280;40093;43.224;27.910;2022-08-19T06:41:43;99989.13;;;32.03;53.75
11523;BME280;40093;43.224;27.910;2022-08-19T06:44:12;99990.19;;;32.00;53.92
11523;BME280;40093;43.224;27.910;2022-08-19T06:46:40;99993.28;;;32.02;54.02
11523;BME280;40093;43.224;27.910;2022-08-19T06:49:07;99995.03;;;31.58;55.16
11523;BME280;40093;43.224;27.910;2022-08-19T06:51:35;99986.66;;;31.65;55.08
11523;BME280;40093;43.224;27.910;2022-08-19T06:54:04;99992.13;;;31.63;55.11
11523;BME280;40093;43.224;27.910;2022-08-19T06:56:31;99990.53;;;31.91;54.56
11523;BME280;40093;43.224;27.910;2022-08-19T06:59:02;99992.78;;;31.98;53.58
11523;BME280;40093;43.224;27.910;2022-08-19T07:01:34;99991.19;;;32.27;53.49
11523;BME280;40093;43.224;27.910;2022-08-19T07:04:03;99975.56;;;31.61;55.23
11523;BME280;40093;43.224;27.910;2022-08-19T07:06:30;99993.59;;;32.17;53.79
11523;BME280;40093;43.224;27.910;2022-08-19T07:08:57;99994.91;;;32.16;53.60
11523;BME280;40093;43.224;27.910;2022-08-19T07:11:24;99986.25;;;32.27;52.47
11523;BME280;40093;43.224;27.910;2022-08-19T07:13:51;99990.81;;;32.54;52.95
11523;BME280;40093;43.224;27.910;2022-08-19T07:16:19;99987.66;;;32.15;53.33
11523;BME280;40093;43.224;27.910;2022-08-19T07:18:48;99982.19;;;32.17;54.21
11523;BME280;40093;43.224;27.910;2022-08-19T07:21:18;99977.09;;;32.34;52.27
11523;BME280;40093;43.224;27.910;2022-08-19T07:23:47;99989.09;;;32.27;53.34
11523;BME280;40093;43.224;27.910;2022-08-19T07:26:17;99989.22;;;32.59;52.24
11523;BME280;40093;43.224;27.910;2022-08-19T07:28:46;99988.25;;;32.69;52.34
11523;BME280;40093;43.224;27.910;2022-08-19T07:31:15;99982.19;;;32.41;52.58
11523;BME280;40093;43.224;27.910;2022-08-19T07:33:44;99980.66;;;32.59;52.61
11523;BME280;40093;43.224;27.910;2022-08-19T07:36:15;99972.13;;;32.59;52.24
11523;BME280;40093;43.224;27.910;2022-08-19T07:38:45;99977.81;;;32.77;51.76
11523;BME280;40093;43.224;27.910;2022-08-19T07:41:16;99994.59;;;32.99;51.01
11523;BME280;40093;43.224;27.910;2022-08-19T07:43:44;99987.66;;;32.95;51.01
11523;BME280;40093;43.224;27.910;2022-08-19T07:46:12;99985.03;;;32.97;51.42
11523;BME280;40093;43.224;27.910;2022-08-19T07:48:41;99979.81;;;33.32;50.10
11523;BME280;40093;43.224;27.910;2022-08-19T07:51:10;99986.19;;;32.88;49.90
11523;BME280;40093;43.224;27.910;2022-08-19T07:53:38;99990.44;;;32.63;50.37
11523;BME280;40093;43.224;27.910;2022-08-19T07:56:05;99979.84;;;31.97;52.00
11523;BME280;40093;43.224;27.910;2022-08-19T07:58:36;99972.34;;;31.76;53.52
11523;BME280;40093;43.224;27.910;2022-08-19T08:01:05;99972.16;;;31.92;52.70
11523;BME280;40093;43.224;27.910;2022-08-19T08:03:32;99974.91;;;31.79;52.73
11523;BME280;40093;43.224;27.910;2022-08-19T08:06:16;99977.03;;;31.73;53.42
11523;BME280;40093;43.224;27.910;2022-08-19T08:09:03;99969.59;;;31.65;51.45
11523;BME280;40093;43.224;27.910;2022-08-19T08:11:48;99967.59;;;32.08;49.83
11523;BME280;40093;43.224;27.910;2022-08-19T08:14:17;99971.63;;;32.36;50.26
11523;BME280;40093;43.224;27.910;2022-08-19T08:16:45;99960.94;;;32.79;49.96
11523;BME280;40093;43.224;27.910;2022-08-19T08:19:13;99976.88;;;32.88;49.15
11523;BME280;40093;43.224;27.910;2022-08-19T08:21:41;99961.34;;;32.33;50.44
11523;BME280;40093;43.224;27.910;2022-08-19T08:24:11;99966.34;;;32.03;51.15
11523;BME280;40093;43.224;27.910;2022-08-19T08:26:38;99959.94;;;32.21;49.73
11523;BME280;40093;43.224;27.910;2022-08-19T08:29:05;99969.25;;;32.22;48.45
11523;BME280;40093;43.224;27.910;2022-08-19T08:31:33;99960.91;;;32.24;50.07
11523;BME280;40093;43.224;27.910;2022-08-19T08:34:02;99964.41;;;32.72;47.27
11523;BME280;40093;43.224;27.910;2022-08-19T08:36:30;99962.53;;;32.93;47.73
11523;BME280;40093;43.224;27.910;2022-08-19T08:38:58;99967.03;;;32.52;46.99
11523;BME280;40093;43.224;27.910;2022-08-19T08:41:31;99960.56;;;32.09;49.42
11523;BME280;40093;43.224;27.910;2022-08-19T08:44:02;99959.22;;;32.52;48.88
11523;BME280;40093;43.224;27.910;2022-08-19T08:46:34;99955.94;;;32.30;49.52
11523;BME280;40093;43.224;27.910;2022-08-19T08:49:07;99961.94;;;32.26;47.94
11523;BME280;40093;43.224;27.910;2022-08-19T08:51:40;99937.94;;;32.59;49.51
11523;BME280;40093;43.224;27.910;2022-08-19T08:54:11;99958.84;;;32.61;49.18
11523;BME280;40093;43.224;27.910;2022-08-19T08:56:41;99948.47;;;32.45;49.21
11523;BME280;40093;43.224;27.910;2022-08-19T08:59:14;99942.84;;;32.58;48.71
11523;BME280;40093;43.224;27.910;2022-08-19T09:01:43;99946.38;;;32.27;47.76
11523;BME280;40093;43.224;27.910;2022-08-19T09:04:12;99950.34;;;32.00;50.12
11523;BME280;40093;43.224;27.910;2022-08-19T09:06:44;99944.25;;;32.09;49.24
11523;BME280;40093;43.224;27.910;2022-08-19T09:09:20;99952.56;;;32.07;45.42
11523;BME280;40093;43.224;27.910;2022-08-19T09:11:56;99943.78;;;32.48;46.88
11523;BME280;40093;43.224;27.910;2022-08-19T09:14:36;99944.97;;;32.89;45.72
11523;BME280;40093;43.224;27.910;2022-08-19T09:17:07;99959.94;;;32.77;47.21
11523;BME280;40093;43.224;27.910;2022-08-19T09:19:35;99956.53;;;32.23;48.25
11523;BME280;40093;43.224;27.910;2022-08-19T09:22:02;99954.50;;;32.18;47.14
11523;BME280;40093;43.224;27.910;2022-08-19T09:24:30;99937.41;;;31.99;47.79
11523;BME280;40093;43.224;27.910;2022-08-19T09:26:59;99964.25;;;32.28;47.82
11523;BME280;40093;43.224;27.910;2022-08-19T09:29:25;99960.63;;;32.27;48.19
11523;BME280;40093;43.224;27.910;2022-08-19T09:31:52;99957.53;;;32.25;48.13
11523;BME280;40093;43.224;27.910;2022-08-19T09:34:20;99971.50;;;32.47;46.90
11523;BME280;40093;43.224;27.910;2022-08-19T09:36:47;99961.03;;;32.55;47.61
11523;BME280;40093;43.224;27.910;2022-08-19T09:39:14;99957.53;;;32.99;47.02
11523;BME280;40093;43.224;27.910;2022-08-19T09:41:41;99966.22;;;33.07;44.07
11523;BME280;40093;43.224;27.910;2022-08-19T09:44:10;99956.78;;;33.30;45.17
11523;BME280;40093;43.224;27.910;2022-08-19T09:46:38;99961.19;;;33.44;43.98
11523;BME280;40093;43.224;27.910;2022-08-19T09:49:05;99964.34;;;33.09;44.46
11523;BME280;40093;43.224;27.910;2022-08-19T09:51:32;99954.31;;;32.90;46.18
11523;BME280;40093;43.224;27.910;2022-08-19T09:54:00;99970.91;;;33.04;45.76
11523;BME280;40093;43.224;27.910;2022-08-19T09:56:28;99957.31;;;32.60;46.12
11523;BME280;40093;43.224;27.910;2022-08-19T09:58:57;99969.03;;;32.75;47.03
11523;BME280;40093;43.224;27.910;2022-08-19T10:01:27;99966.56;;;32.66;45.63
11523;BME280;40093;43.224;27.910;2022-08-19T10:03:56;99954.69;;;32.44;47.52
11523;BME280;40093;43.224;27.910;2022-08-19T10:06:26;99963.84;;;32.92;46.08
11523;BME280;40093;43.224;27.910;2022-08-19T10:08:55;99962.69;;;33.01;45.82
11523;BME280;40093;43.224;27.910;2022-08-19T10:11:22;99963.66;;;32.72;46.68
11523;BME280;40093;43.224;27.910;2022-08-19T10:13:49;99968.25;;;32.75;46.73
11523;BME280;40093;43.224;27.910;2022-08-19T10:16:19;99972.19;;;32.53;46.84
11523;BME280;40093;43.224;27.910;2022-08-19T10:18:51;99965.41;;;32.56;46.21
11523;BME280;40093;43.224;27.910;2022-08-19T10:21:20;99963.78;;;32.79;46.24
11523;BME280;40093;43.224;27.910;2022-08-19T10:23:49;99971.88;;;33.25;44.40
11523;BME280;40093;43.224;27.910;2022-08-19T10:26:19;99956.94;;;33.19;45.42
11523;BME280;40093;43.224;27.910;2022-08-19T10:28:47;99961.75;;;33.69;43.38
11523;BME280;40093;43.224;27.910;2022-08-19T10:31:17;99971.25;;;33.32;38.50
11523;BME280;40093;43.224;27.910;2022-08-19T10:33:45;99970.41;;;32.87;42.24
11523;BME280;40093;43.224;27.910;2022-08-19T10:36:17;99964.47;;;33.17;42.45
11523;BME280;40093;43.224;27.910;2022-08-19T10:38:46;99957.59;;;33.70;41.77
11523;BME280;40093;43.224;27.910;2022-08-19T10:41:16;99960.81;;;33.22;41.13
11523;BME280;40093;43.224;27.910;2022-08-19T10:43:44;99968.78;;;32.92;43.69
11523;BME280;40093;43.224;27.910;2022-08-19T10:46:13;99970.97;;;33.17;42.86
11523;BME280;40093;43.224;27.910;2022-08-19T10:48:41;99959.88;;;33.58;41.77
11523;BME280;40093;43.224;27.910;2022-08-19T10:51:10;99956.94;;;33.19;43.74
11523;BME280;40093;43.224;27.910;2022-08-19T10:53:57;99972.22;;;33.22;42.28
11523;BME280;40093;43.224;27.910;2022-08-19T10:56:24;99976.31;;;33.39;40.22
11523;BME280;40093;43.224;27.910;2022-08-19T10:59:09;99968.22;;;33.69;39.28
11523;BME280;40093;43.224;27.910;2022-08-19T11:01:39;99961.16;;;33.89;40.10
11523;BME280;40093;43.224;27.910;2022-08-19T11:04:07;99974.84;;;34.16;40.52
11523;BME280;40093;43.224;27.910;2022-08-19T11:06:37;99982.88;;;34.44;40.22
11523;BME280;40093;43.224;27.910;2022-08-19T11:09:07;99976.28;;;34.36;40.57
11523;BME280;40093;43.224;27.910;2022-08-19T11:11:35;99993.09;;;33.87;51.66
11523;BME280;40093;43.224;27.910;2022-08-19T11:14:06;99988.41;;;33.58;54.00
11523;BME280;40093;43.224;27.910;2022-08-19T11:16:34;99975.53;;;33.39;59.00
11523;BME280;40093;43.224;27.910;2022-08-19T11:19:01;99969.25;;;32.96;57.77
11523;BME280;40093;43.224;27.910;2022-08-19T11:21:29;99986.97;;;32.33;62.30
11523;BME280;40093;43.224;27.910;2022-08-19T11:23:59;99991.19;;;31.79;66.41
11523;BME280;40093;43.224;27.910;2022-08-19T11:26:29;99971.06;;;31.48;69.27
11523;BME280;40093;43.224;27.910;2022-08-19T11:28:57;99972.72;;;31.61;73.40
11523;BME280;40093;43.224;27.910;2022-08-19T11:31:26;99994.28;;;31.52;75.53
11523;BME280;40093;43.224;27.910;2022-08-19T11:33:55;99988.13;;;31.48;73.28
11523;BME280;40093;43.224;27.910;2022-08-19T11:36:22;99984.75;;;31.20;74.53
11523;BME280;40093;43.224;27.910;2022-08-19T11:38:50;99988.75;;;31.00;67.47
11523;BME280;40093;43.224;27.910;2022-08-19T11:41:18;99978.75;;;30.94;71.16
11523;BME280;40093;43.224;27.910;2022-08-19T11:43:49;99972.44;;;30.71;75.23
11523;BME280;40093;43.224;27.910;2022-08-19T11:46:19;99986.13;;;30.73;75.08
11523;BME280;40093;43.224;27.910;2022-08-19T11:48:46;99980.56;;;30.91;72.53
11523;BME280;40093;43.224;27.910;2022-08-19T11:51:18;99978.97;;;30.96;69.76
11523;BME280;40093;43.224;27.910;2022-08-19T11:53:45;99969.66;;;30.95;67.88
11523;BME280;40093;43.224;27.910;2022-08-19T11:56:12;99973.91;;;30.83;67.46
11523;BME280;40093;43.224;27.910;2022-08-19T11:58:39;99975.34;;;30.55;70.93
11523;BME280;40093;43.224;27.910;2022-08-19T12:01:10;99979.53;;;30.43;70.68
11523;BME280;40093;43.224;27.910;2022-08-19T12:03:38;99975.41;;;30.44;71.19
11523;BME280;40093;43.224;27.910;2022-08-19T12:06:07;99964.28;;;30.46;73.06
11523;BME280;40093;43.224;27.910;2022-08-19T12:08:35;99977.75;;;30.40;73.19
11523;BME280;40093;43.224;27.910;2022-08-19T12:11:02;99974.94;;;30.29;76.18
11523;BME280;40093;43.224;27.910;2022-08-19T12:13:29;99969.84;;;30.22;77.14
11523;BME280;40093;43.224;27.910;2022-08-19T12:15:57;99969.84;;;30.22;79.12
11523;BME280;40093;43.224;27.910;2022-08-19T12:18:26;99989.78;;;30.05;79.15
11523;BME280;40093;43.224;27.910;2022-08-19T12:20:53;99982.06;;;29.84;82.36
11523;BME280;40093;43.224;27.910;2022-08-19T12:23:21;99992.09;;;29.90;80.00
11523;BME280;40093;43.224;27.910;2022-08-19T12:25:49;99978.66;;;30.02;79.78
11523;BME280;40093;43.224;27.910;2022-08-19T12:28:18;99972.00;;;29.83;82.79
11523;BME280;40093;43.224;27.910;2022-08-19T12:30:46;99970.47;;;29.82;82.28
11523;BME280;40093;43.224;27.910;2022-08-19T12:33:14;99978.19;;;29.87;82.22
11523;BME280;40093;43.224;27.910;2022-08-19T12:35:44;99985.38;;;29.99;80.16
11523;BME280;40093;43.224;27.910;2022-08-19T12:38:12;99984.09;;;30.00;80.59
11523;BME280;40093;43.224;27.910;2022-08-19T12:40:40;99981.50;;;29.96;81.86
11523;BME280;40093;43.224;27.910;2022-08-19T12:43:07;99976.59;;;29.97;82.39
11523;BME280;40093;43.224;27.910;2022-08-19T12:45:36;99984.34;;;30.02;81.77
11523;BME280;40093;43.224;27.910;2022-08-19T12:48:03;99966.06;;;29.92;81.82
11523;BME280;40093;43.224;27.910;2022-08-19T12:50:31;99965.56;;;29.82;81.08
11523;BME280;40093;43.224;27.910;2022-08-19T12:52:59;99973.78;;;29.91;80.50
11523;BME280;40093;43.224;27.910;2022-08-19T12:55:26;99959.34;;;29.89;80.57
11523;BME280;40093;43.224;27.910;2022-08-19T12:57:54;99974.38;;;29.73;81.53